Terminal Aerodrome Forecast
Issued by NWS

Home | Current Version | Previous Version | Text Only | Print | Product List | Glossary On
Versions: 1 2 3 4 5 6 7 8 9 10 11 12 13 14 15 16
000
FTUS43 KGRB 312300
TAFAUW
TAF
KAUW 312335Z 0100/0124 28006KT P6SM SCT040 BKN250
     FM010200 VRB03KT P6SM SCT080
     FM010800 VRB02KT 3SM BR SCT250
     FM011400 26004KT P6SM SCT080
      TEMPO 0118/0122 BKN080=

USA.gov is the U.S. government's official web portal to all federal, state and local government web resources and services.